createdAt,value
2019-05-07T00:00:38.632Z,6.73
2019-05-07T00:03:06.768Z,6.57
2019-05-07T00:05:34.817Z,6.40
2019-05-07T00:08:03.136Z,5.90
2019-05-07T00:10:33.196Z,7.53
2019-05-07T00:13:02.253Z,6.47
2019-05-07T00:15:32.849Z,7.43
2019-05-07T00:18:00.496Z,8.23
2019-05-07T00:20:32.545Z,5.53
2019-05-07T00:23:00.022Z,8.33
2019-05-07T00:25:28.201Z,6.33
2019-05-07T00:27:56.297Z,7.37
2019-05-07T00:30:24.352Z,9.40
2019-05-07T00:32:53.107Z,7.83
2019-05-07T00:35:24.076Z,10.10
2019-05-07T00:37:57.527Z,7.43
2019-05-07T00:40:44.530Z,9.23
2019-05-07T00:43:18.198Z,7.43
2019-05-07T00:45:52.860Z,8.10
2019-05-07T00:48:23.271Z,7.53
2019-05-07T00:50:53.883Z,8.17
2019-05-07T00:53:23.712Z,8.87
2019-05-07T00:55:52.584Z,9.03
2019-05-07T00:58:25.082Z,9.37
2019-05-07T01:00:50.548Z,8.40
2019-05-07T01:03:18.725Z,9.77
2019-05-07T01:05:46.858Z,8.97
2019-05-07T01:08:14.984Z,9.93
2019-05-07T01:10:43.073Z,10.13
2019-05-07T01:13:12.574Z,10.20
2019-05-07T01:15:42.971Z,10.07
2019-05-07T01:18:12.333Z,11.37
2019-05-07T01:20:42.364Z,9.60
2019-05-07T01:23:10.216Z,9.43
2019-05-07T01:25:39.277Z,9.40
2019-05-07T01:28:09.183Z,10.33
2019-05-07T01:30:37.447Z,10.27
2019-05-07T01:33:15.812Z,9.77
2019-05-07T01:36:05.575Z,9.03
2019-05-07T01:38:33.813Z,9.63
2019-05-07T01:41:02.835Z,9.27
2019-05-07T01:43:32.842Z,10.23
2019-05-07T01:46:02.952Z,9.70
2019-05-07T01:48:32.343Z,10.87
2019-05-07T01:51:03.202Z,10.57
2019-05-07T01:53:32.324Z,10.73
2019-05-07T01:56:00.254Z,10.70
2019-05-07T01:58:28.349Z,10.30
2019-05-07T02:00:56.499Z,10.10
2019-05-07T02:03:38.192Z,11.20
2019-05-07T02:06:22.026Z,11.33
2019-05-07T02:09:12.988Z,11.60
2019-05-07T02:11:43.557Z,12.60
2019-05-07T02:14:13.478Z,11.70
2019-05-07T02:16:41.882Z,14.67
2019-05-07T02:19:10.148Z,14.30
2019-05-07T02:21:38.220Z,13.10
2019-05-07T02:24:06.309Z,13.63
2019-05-07T02:26:34.371Z,12.53
2019-05-07T02:29:02.884Z,11.90
2019-05-07T02:31:33.618Z,14.33
2019-05-07T02:34:02.707Z,12.27
2019-05-07T02:36:33.710Z,12.40
2019-05-07T02:39:19.017Z,13.97
2019-05-07T02:41:47.073Z,13.67
2019-05-07T02:44:16.266Z,13.37
2019-05-07T02:46:52.980Z,12.77
2019-05-07T02:49:43.951Z,13.90
2019-05-07T02:52:24.183Z,13.33
2019-05-07T02:55:23.243Z,13.67
2019-05-07T02:57:53.648Z,13.67
2019-05-07T03:00:23.770Z,12.97
2019-05-07T03:02:52.866Z,13.70
2019-05-07T03:05:22.674Z,15.00
2019-05-07T03:07:49.769Z,14.17
2019-05-07T03:10:17.999Z,13.73
2019-05-07T03:12:45.979Z,17.17
2019-05-07T03:15:14.163Z,16.43
2019-05-07T03:17:42.980Z,14.23
2019-05-07T03:20:15.118Z,18.10
2019-05-07T03:22:44.969Z,14.00
2019-05-07T03:25:22.499Z,14.17
2019-05-07T03:27:50.016Z,20.90
2019-05-07T03:30:27.888Z,15.87
2019-05-07T03:33:06.878Z,13.93
2019-05-07T03:35:38.550Z,14.63
2019-05-07T03:38:06.525Z,14.63
2019-05-07T03:40:35.379Z,17.93
2019-05-07T03:43:05.934Z,15.93
2019-05-07T03:45:54.000Z,15.53
2019-05-07T03:48:24.210Z,13.27
2019-05-07T03:50:54.282Z,14.83
2019-05-07T03:53:24.232Z,14.80
2019-05-07T03:55:53.703Z,15.40
2019-05-07T03:58:23.596Z,16.07
2019-05-07T04:00:53.607Z,15.20
2019-05-07T04:03:24.742Z,16.63
2019-05-07T04:05:53.485Z,15.80
2019-05-07T04:08:23.655Z,14.73
2019-05-07T04:10:53.952Z,15.30
2019-05-07T04:13:23.831Z,16.20
2019-05-07T04:15:52.738Z,14.87
2019-05-07T04:18:23.757Z,20.93
2019-05-07T04:20:53.676Z,17.80
2019-05-07T04:23:23.265Z,18.57
2019-05-07T04:25:59.681Z,20.27
2019-05-07T04:28:55.770Z,17.97
2019-05-07T04:31:25.501Z,14.67
2019-05-07T04:33:55.712Z,15.50
2019-05-07T04:36:27.163Z,17.13
2019-05-07T04:38:55.259Z,21.23
2019-05-07T04:41:23.632Z,17.17
2019-05-07T04:43:54.056Z,14.37
2019-05-07T04:46:23.627Z,19.27
2019-05-07T04:48:52.827Z,15.20
2019-05-07T04:51:33.546Z,17.03
2019-05-07T04:53:59.424Z,17.53
2019-05-07T04:56:27.706Z,16.23
2019-05-07T04:58:55.877Z,15.67
2019-05-07T05:01:26.027Z,14.97
2019-05-07T05:03:54.285Z,14.53
2019-05-07T05:06:24.142Z,13.97
2019-05-07T05:08:55.989Z,15.67
2019-05-07T05:11:23.658Z,15.93
2019-05-07T05:13:53.207Z,15.33
2019-05-07T05:16:25.690Z,16.43
2019-05-07T05:18:55.264Z,14.70
2019-05-07T05:21:38.508Z,14.40
2019-05-07T05:24:09.931Z,15.23
2019-05-07T05:26:38.051Z,14.00
2019-05-07T05:29:07.905Z,14.00
2019-05-07T05:31:36.031Z,12.90
2019-05-07T05:34:04.234Z,13.03
2019-05-07T05:36:33.045Z,14.47
2019-05-07T05:39:02.514Z,13.43
2019-05-07T05:41:31.249Z,13.30
2019-05-07T05:44:18.236Z,10.87
2019-05-07T05:46:46.510Z,13.68
2019-05-07T05:49:14.579Z,14.20
2019-05-07T05:51:54.563Z,9.90
2019-05-07T05:54:35.982Z,12.33
2019-05-07T05:57:38.621Z,11.17
2019-05-07T06:00:24.237Z,14.17
2019-05-07T06:03:11.961Z,11.87
2019-05-07T06:05:44.736Z,10.50
2019-05-07T06:08:24.024Z,12.70
2019-05-07T06:11:17.071Z,7.17
2019-05-07T06:13:58.512Z,13.77
2019-05-07T06:16:29.687Z,9.20
2019-05-07T06:19:22.593Z,7.40
2019-05-07T06:22:16.478Z,12.80
2019-05-07T06:25:03.941Z,12.30
2019-05-07T06:27:32.591Z,10.37
2019-05-07T06:30:04.536Z,10.33
2019-05-07T06:32:32.001Z,9.67
2019-05-07T06:35:02.935Z,7.87
2019-05-07T06:37:32.138Z,10.40
2019-05-07T06:40:29.198Z,8.50
2019-05-07T06:43:14.327Z,8.93
2019-05-07T06:45:46.632Z,10.23
2019-05-07T06:48:14.847Z,6.47
2019-05-07T06:50:56.666Z,10.00
2019-05-07T06:53:25.883Z,8.40
2019-05-07T06:55:53.955Z,6.70
2019-05-07T06:58:22.812Z,10.77
2019-05-07T07:01:03.132Z,9.23
2019-05-07T07:03:56.002Z,13.67
2019-05-07T07:06:26.831Z,6.97
2019-05-07T07:09:17.246Z,7.33
2019-05-07T07:11:52.790Z,9.93
2019-05-07T07:14:22.585Z,7.13
2019-05-07T07:16:50.086Z,9.33
2019-05-07T07:19:18.108Z,9.30
2019-05-07T07:21:46.209Z,6.43
2019-05-07T07:24:14.255Z,7.03
2019-05-07T07:26:42.370Z,10.87
2019-05-07T07:29:12.739Z,6.47
2019-05-07T07:31:53.614Z,8.80
2019-05-07T07:34:22.798Z,6.77
2019-05-07T07:37:07.880Z,8.63
2019-05-07T07:39:27.251Z,9.77
2019-05-07T07:41:57.907Z,9.87
2019-05-07T07:44:27.247Z,8.37
2019-05-07T07:46:55.385Z,11.13
2019-05-07T07:49:23.673Z,6.77
2019-05-07T07:51:52.553Z,9.67
2019-05-07T07:54:22.626Z,9.10
2019-05-07T07:57:08.711Z,6.60
2019-05-07T07:59:52.856Z,5.43
2019-05-07T08:02:42.421Z,5.80
2019-05-07T08:05:12.490Z,7.20
2019-05-07T08:07:42.458Z,6.13
2019-05-07T08:10:09.957Z,5.40
2019-05-07T08:12:38.169Z,6.30
2019-05-07T08:15:16.741Z,7.30
2019-05-07T08:17:36.324Z,4.47
2019-05-07T08:20:04.921Z,7.40
2019-05-07T08:22:33.132Z,6.13
2019-05-07T08:25:01.942Z,4.43
2019-05-07T08:27:32.447Z,4.53
2019-05-07T08:29:59.892Z,4.97
2019-05-07T08:32:56.081Z,4.87
2019-05-07T08:35:37.322Z,4.00
2019-05-07T08:38:05.339Z,7.00
2019-05-07T08:40:33.636Z,5.47
2019-05-07T08:43:03.278Z,5.10
2019-05-07T08:46:08.647Z,10.17
2019-05-07T08:48:42.459Z,4.10
2019-05-07T08:51:11.910Z,5.37
2019-05-07T08:53:42.193Z,4.60
2019-05-07T08:56:12.312Z,4.03
2019-05-07T08:58:39.499Z,5.80
2019-05-07T09:01:07.602Z,6.07
2019-05-07T09:03:44.593Z,3.23
2019-05-07T09:06:13.330Z,5.83
2019-05-07T09:08:43.518Z,9.13
2019-05-07T09:11:13.237Z,5.57
2019-05-07T09:13:42.154Z,5.50
2019-05-07T09:16:12.696Z,4.67
2019-05-07T09:18:41.770Z,2.67
2019-05-07T09:21:09.670Z,7.40
2019-05-07T09:23:37.919Z,7.67
2019-05-07T09:26:08.660Z,6.33
2019-05-07T09:29:08.073Z,7.57
2019-05-07T09:31:53.962Z,7.03
2019-05-07T09:34:22.975Z,16.13
2019-05-07T09:36:53.147Z,6.47
2019-05-07T09:39:22.121Z,7.63
2019-05-07T09:41:52.479Z,3.07
2019-05-07T09:44:22.036Z,6.73
2019-05-07T09:46:52.060Z,5.27
2019-05-07T09:49:22.133Z,4.93
2019-05-07T09:51:51.937Z,5.93
2019-05-07T09:54:19.581Z,4.50
2019-05-07T09:56:47.691Z,6.90
2019-05-07T09:59:15.758Z,3.30
2019-05-07T10:01:43.894Z,3.60
2019-05-07T10:04:11.861Z,6.10
2019-05-07T10:06:39.828Z,4.03
2019-05-07T10:09:07.964Z,5.93
2019-05-07T10:11:44.458Z,3.97
2019-05-07T10:14:12.645Z,2.70
2019-05-07T10:16:49.851Z,6.47
2019-05-07T10:19:19.220Z,5.03
2019-05-07T10:21:47.507Z,3.13
2019-05-07T10:24:15.489Z,4.57
2019-05-07T10:26:45.374Z,2.87
2019-05-07T10:29:13.505Z,4.67
2019-05-07T10:31:42.411Z,3.43
2019-05-07T10:34:12.396Z,3.40
2019-05-07T10:36:42.033Z,5.70
2019-05-07T10:39:09.696Z,5.17
2019-05-07T10:41:37.924Z,4.60
2019-05-07T10:44:06.226Z,5.20
2019-05-07T10:46:57.432Z,3.73
2019-05-07T10:49:28.891Z,3.43
2019-05-07T10:51:56.966Z,8.83
2019-05-07T10:54:25.039Z,4.20
2019-05-07T10:56:53.176Z,3.37
2019-05-07T10:59:22.509Z,6.77
2019-05-07T11:01:59.464Z,5.33
2019-05-07T11:04:39.320Z,4.90
2019-05-07T11:06:59.297Z,4.90
2019-05-07T11:09:29.072Z,3.07
2019-05-07T11:11:57.226Z,2.47
2019-05-07T11:14:25.282Z,2.97
2019-05-07T11:17:02.692Z,2.83
2019-05-07T11:19:32.420Z,2.73
2019-05-07T11:22:00.780Z,2.43
2019-05-07T11:24:28.879Z,3.53
2019-05-07T11:26:57.263Z,4.23
2019-05-07T11:29:26.866Z,4.33
2019-05-07T11:31:54.916Z,4.87
2019-05-07T11:34:24.691Z,2.20
2019-05-07T11:36:52.861Z,2.93
2019-05-07T11:39:22.672Z,3.33
2019-05-07T11:42:17.961Z,4.43
2019-05-07T11:44:45.971Z,3.10
2019-05-07T11:47:23.075Z,7.73
2019-05-07T11:50:08.885Z,2.60
2019-05-07T11:52:39.780Z,6.60
2019-05-07T11:55:07.827Z,4.03
2019-05-07T11:57:35.941Z,3.77
2019-05-07T12:00:04.510Z,4.07
2019-05-07T12:02:32.586Z,3.50
2019-05-07T12:05:01.949Z,2.17
2019-05-07T12:07:32.622Z,5.37
2019-05-07T12:10:04.659Z,3.20
2019-05-07T12:12:32.621Z,4.10
2019-05-07T12:15:02.430Z,3.20
2019-05-07T12:17:31.664Z,4.70
2019-05-07T12:20:02.204Z,3.53
2019-05-07T12:22:47.924Z,3.30
2019-05-07T12:25:16.769Z,4.40
2019-05-07T12:27:45.038Z,6.70
2019-05-07T12:30:16.901Z,4.43
2019-05-07T12:33:02.287Z,3.67
2019-05-07T12:35:30.479Z,1.97
2019-05-07T12:37:58.651Z,4.73
2019-05-07T12:40:26.626Z,2.77
2019-05-07T12:42:54.777Z,2.33
2019-05-07T12:45:22.932Z,3.70
2019-05-07T12:47:52.937Z,4.53
2019-05-07T12:50:22.017Z,3.30
2019-05-07T12:52:55.174Z,3.63
2019-05-07T12:55:27.723Z,6.03
2019-05-07T12:57:55.867Z,2.17
2019-05-07T13:00:48.290Z,22.93
2019-05-07T13:03:29.300Z,5.10
2019-05-07T13:05:57.303Z,5.53
2019-05-07T13:08:25.897Z,3.67
2019-05-07T13:10:54.734Z,4.13
2019-05-07T13:13:26.334Z,3.20
2019-05-07T13:15:55.503Z,3.53
2019-05-07T13:18:27.613Z,3.90
2019-05-07T13:20:59.222Z,2.73
2019-05-07T13:23:27.254Z,3.30
2019-05-07T13:25:55.385Z,4.07
2019-05-07T13:28:23.541Z,4.57
2019-05-07T13:30:53.146Z,3.40
2019-05-07T13:33:22.785Z,3.67
2019-05-07T13:35:52.201Z,5.30
2019-05-07T13:38:32.300Z,3.73
2019-05-07T13:41:25.663Z,4.03
2019-05-07T13:44:27.900Z,3.87
2019-05-07T13:47:15.142Z,5.80
2019-05-07T13:49:43.367Z,3.87
2019-05-07T13:52:11.823Z,3.53
2019-05-07T13:54:41.813Z,3.00
2019-05-07T13:57:11.897Z,4.60
2019-05-07T13:59:39.682Z,5.30
2019-05-07T14:02:13.830Z,3.80
2019-05-07T14:04:41.949Z,2.33
2019-05-07T14:07:09.889Z,2.90
2019-05-07T14:09:38.048Z,3.63
2019-05-07T14:12:07.188Z,2.10
2019-05-07T14:14:35.365Z,4.53
2019-05-07T14:17:03.706Z,3.70
2019-05-07T14:19:33.591Z,2.90
2019-05-07T14:22:14.856Z,2.77
2019-05-07T14:24:32.842Z,4.83
2019-05-07T14:27:02.910Z,8.33
2019-05-07T14:29:32.045Z,7.47
2019-05-07T14:32:21.729Z,4.10
2019-05-07T14:35:22.703Z,4.00
2019-05-07T14:37:57.672Z,4.33
2019-05-07T14:40:26.072Z,4.67
2019-05-07T14:43:00.900Z,4.93
2019-05-07T14:45:29.086Z,6.40
2019-05-07T14:47:57.189Z,4.37
2019-05-07T14:50:27.370Z,3.70
2019-05-07T14:52:55.784Z,3.13
2019-05-07T14:55:25.793Z,2.80
2019-05-07T14:57:54.882Z,3.80
2019-05-07T15:00:23.991Z,4.13
2019-05-07T15:02:52.508Z,1.90
2019-05-07T15:05:22.330Z,5.03
2019-05-07T15:07:50.269Z,2.87
2019-05-07T15:10:19.365Z,4.77
2019-05-07T15:12:47.413Z,2.57
2019-05-07T15:15:15.823Z,3.70
2019-05-07T15:18:08.240Z,3.57
2019-05-07T15:20:36.449Z,5.53
2019-05-07T15:23:11.971Z,5.80
2019-05-07T15:25:40.233Z,6.30
2019-05-07T15:28:08.600Z,4.70
2019-05-07T15:30:45.061Z,4.00
2019-05-07T15:33:13.165Z,4.77
2019-05-07T15:35:42.420Z,3.50
2019-05-07T15:38:11.656Z,3.97
2019-05-07T15:40:41.820Z,2.17
2019-05-07T15:43:09.677Z,3.00
2019-05-07T15:45:37.736Z,3.60
2019-05-07T15:48:05.925Z,3.60
2019-05-07T15:50:34.048Z,4.43
2019-05-07T15:53:21.926Z,2.70
2019-05-07T15:55:52.280Z,5.70
2019-05-07T15:58:22.628Z,1.93
2019-05-07T16:00:51.832Z,2.77
2019-05-07T16:03:24.926Z,6.57
2019-05-07T16:05:53.223Z,6.13
2019-05-07T16:08:22.690Z,3.90
2019-05-07T16:10:52.968Z,5.03
2019-05-07T16:13:25.117Z,5.87
2019-05-07T16:15:53.311Z,2.50
2019-05-07T16:18:25.368Z,5.07
2019-05-07T16:20:55.038Z,4.60
2019-05-07T16:23:23.177Z,3.30
2019-05-07T16:25:52.826Z,5.80
2019-05-07T16:28:21.916Z,2.97
2019-05-07T16:30:52.045Z,2.50
2019-05-07T16:33:19.928Z,3.67
2019-05-07T16:35:47.978Z,3.70
2019-05-07T16:38:18.107Z,5.07
2019-05-07T16:40:45.983Z,2.73
2019-05-07T16:43:14.137Z,2.23
2019-05-07T16:45:42.547Z,2.37
2019-05-07T16:48:11.913Z,3.10
2019-05-07T16:50:42.065Z,3.10
2019-05-07T16:53:12.111Z,4.13
2019-05-07T16:55:43.023Z,4.70
2019-05-07T16:58:39.594Z,3.47
2019-05-07T17:01:09.281Z,3.10
2019-05-07T17:03:42.652Z,5.60
2019-05-07T17:06:12.444Z,3.30
2019-05-07T17:09:18.052Z,5.40
2019-05-07T17:11:46.160Z,2.10
2019-05-07T17:14:15.430Z,4.73
2019-05-07T17:16:43.547Z,4.03
2019-05-07T17:19:12.971Z,3.27
2019-05-07T17:21:42.932Z,3.93
2019-05-07T17:24:11.959Z,1.90
2019-05-07T17:26:42.155Z,2.83
2019-05-07T17:29:09.665Z,4.70
2019-05-07T17:31:37.703Z,3.50
2019-05-07T17:34:05.947Z,5.50
2019-05-07T17:36:34.005Z,2.93
2019-05-07T17:39:02.698Z,4.10
2019-05-07T17:41:32.215Z,2.50
2019-05-07T17:44:02.447Z,3.83
2019-05-07T17:46:32.302Z,3.73
2019-05-07T17:49:02.444Z,3.17
2019-05-07T17:51:44.043Z,3.80
2019-05-07T17:54:33.717Z,3.73
2019-05-07T17:57:33.674Z,5.50
2019-05-07T18:00:07.840Z,4.30
2019-05-07T18:03:16.535Z,2.37
2019-05-07T18:05:48.158Z,6.37
2019-05-07T18:08:26.117Z,5.00
2019-05-07T18:11:02.646Z,2.43
2019-05-07T18:13:34.137Z,3.40
2019-05-07T18:16:08.747Z,4.73
2019-05-07T18:18:36.743Z,10.73
2019-05-07T18:21:05.261Z,3.73
2019-05-07T18:23:33.368Z,4.50
2019-05-07T18:26:01.468Z,12.93
2019-05-07T18:28:32.382Z,3.63
2019-05-07T18:31:02.018Z,2.83
2019-05-07T18:33:56.357Z,3.73
2019-05-07T18:36:27.927Z,5.30
2019-05-07T18:38:55.703Z,4.10
2019-05-07T18:41:23.998Z,6.33
2019-05-07T18:43:54.603Z,5.33
2019-05-07T18:46:22.197Z,6.30
2019-05-07T18:48:51.833Z,8.80
2019-05-07T18:51:20.060Z,7.13
2019-05-07T18:53:48.104Z,9.93
2019-05-07T18:56:16.288Z,11.37
2019-05-07T18:58:44.339Z,5.63
2019-05-07T19:01:13.230Z,6.07
2019-05-07T19:03:41.964Z,7.10
2019-05-07T19:06:13.519Z,7.77
2019-05-07T19:08:42.206Z,6.70
2019-05-07T19:11:12.377Z,5.03
2019-05-07T19:13:42.039Z,6.57
2019-05-07T19:16:12.181Z,7.77
2019-05-07T19:18:43.059Z,6.33
2019-05-07T19:21:10.997Z,6.93
2019-05-07T19:23:39.213Z,5.40
2019-05-07T19:26:09.245Z,8.67
2019-05-07T19:28:39.410Z,4.90
2019-05-07T19:31:07.743Z,4.93
2019-05-07T19:33:35.838Z,7.77
2019-05-07T19:36:03.951Z,7.50
2019-05-07T19:38:32.414Z,6.03
2019-05-07T19:41:02.270Z,5.30
2019-05-07T19:43:32.369Z,4.57
2019-05-07T19:46:00.331Z,6.53
2019-05-07T19:48:32.165Z,7.87
2019-05-07T19:50:59.969Z,4.87
2019-05-07T19:53:28.134Z,5.07
2019-05-07T19:56:15.192Z,6.60
2019-05-07T19:58:43.473Z,9.00
2019-05-07T20:01:12.963Z,6.37
2019-05-07T20:03:43.300Z,6.63
2019-05-07T20:06:13.001Z,5.40
2019-05-07T20:08:43.093Z,3.67
2019-05-07T20:11:27.385Z,8.77
2019-05-07T20:13:57.189Z,7.47
2019-05-07T20:16:25.333Z,4.80
2019-05-07T20:18:53.407Z,9.17
2019-05-07T20:21:22.907Z,6.73
2019-05-07T20:23:52.677Z,7.80
2019-05-07T20:26:22.905Z,13.63
2019-05-07T20:28:52.598Z,7.63
2019-05-07T20:31:22.552Z,8.07
2019-05-07T20:33:53.031Z,7.93
2019-05-07T20:36:20.827Z,8.97
2019-05-07T20:38:51.959Z,8.47
2019-05-07T20:41:19.856Z,9.13
2019-05-07T20:43:49.310Z,5.77
2019-05-07T20:46:17.368Z,6.63
2019-05-07T20:48:45.375Z,6.47
2019-05-07T20:51:13.484Z,10.20
2019-05-07T20:54:03.528Z,8.87
2019-05-07T20:56:34.991Z,13.33
2019-05-07T20:59:03.202Z,8.03
2019-05-07T21:01:33.167Z,10.53
2019-05-07T21:04:02.508Z,11.20
2019-05-07T21:06:32.288Z,11.07
2019-05-07T21:09:00.512Z,11.03
2019-05-07T21:11:28.647Z,23.30
2019-05-07T21:13:57.603Z,23.27
2019-05-07T21:16:25.969Z,20.70
2019-05-07T21:18:55.603Z,13.50
2019-05-07T21:21:24.261Z,17.90
2019-05-07T21:23:52.824Z,14.43
2019-05-07T21:26:22.522Z,7.43
2019-05-07T21:28:52.736Z,10.80
2019-05-07T21:31:22.558Z,10.23
2019-05-07T21:33:52.209Z,8.73
2019-05-07T21:36:22.822Z,7.57
2019-05-07T21:38:51.805Z,12.00
2019-05-07T21:41:22.744Z,7.80
2019-05-07T21:43:52.954Z,9.53
2019-05-07T21:46:22.251Z,12.07
2019-05-07T21:48:53.776Z,8.77
2019-05-07T21:51:22.855Z,8.53
2019-05-07T21:54:00.389Z,7.53
2019-05-07T21:56:52.210Z,10.50
2019-05-07T21:59:22.359Z,7.90
2019-05-07T22:01:53.581Z,8.63
2019-05-07T22:04:21.892Z,9.17
2019-05-07T22:06:52.172Z,7.07
2019-05-07T22:09:22.174Z,8.33
2019-05-07T22:11:53.488Z,6.57
2019-05-07T22:14:19.291Z,6.50
2019-05-07T22:16:47.479Z,7.67
2019-05-07T22:19:15.569Z,9.10
2019-05-07T22:21:43.608Z,8.13
2019-05-07T22:24:15.088Z,7.83
2019-05-07T22:26:42.418Z,7.43
2019-05-07T22:29:12.590Z,8.70
2019-05-07T22:31:58.227Z,7.53
2019-05-07T22:35:03.869Z,7.70
2019-05-07T22:37:32.524Z,6.30
2019-05-07T22:40:02.810Z,7.87
2019-05-07T22:42:32.710Z,6.13
2019-05-07T22:45:02.797Z,5.87
2019-05-07T22:47:32.599Z,5.87
2019-05-07T22:50:04.327Z,6.30
2019-05-07T22:52:32.757Z,6.63
2019-05-07T22:55:02.310Z,7.23
2019-05-07T22:57:52.616Z,8.60
2019-05-07T23:00:36.178Z,6.93
2019-05-07T23:03:04.267Z,6.87
2019-05-07T23:05:32.561Z,6.17
2019-05-07T23:08:02.398Z,7.33
2019-05-07T23:10:33.092Z,6.50
2019-05-07T23:13:02.290Z,6.43
2019-05-07T23:15:32.193Z,8.93
2019-05-07T23:18:04.134Z,6.97
2019-05-07T23:20:31.925Z,8.03
2019-05-07T23:23:00.432Z,6.03
2019-05-07T23:25:28.533Z,13.20
2019-05-07T23:27:56.593Z,9.77
2019-05-07T23:30:24.680Z,5.83
2019-05-07T23:32:52.955Z,7.50
2019-05-07T23:35:22.263Z,10.27
2019-05-07T23:37:52.790Z,6.73
2019-05-07T23:40:27.499Z,9.17
2019-05-07T23:42:56.250Z,5.30
2019-05-07T23:45:24.365Z,8.83
2019-05-07T23:47:52.427Z,4.60
2019-05-07T23:50:20.467Z,7.90
2019-05-07T23:52:49.664Z,6.33
2019-05-07T23:55:17.742Z,7.93
2019-05-07T23:57:45.792Z,6.10
